Time;durP1;ratioP1;P1;durP2;ratioP2;P2;SDS_P1;SDS_P2;PMS_P1;PMS_P2;Temp;Humidity;BMP_temperature;BMP_pressure;BME280_temperature;BME280_humidity;BME280_pressure;Samples;Min_cycle;Max_cycle;Signal;HPM_P1;HPM_P2
2023/11/01 00:02:20;;;;;;;6.80;6.20;;;9.90;99.90;;;;;;5053104;28;20989;-70
2023/11/01 00:04:49;;;;;;;6.80;6.20;;;9.90;99.90;;;;;;5053301;28;20438;-70
2023/11/01 00:07:18;;;;;;;8.60;6.60;;;9.90;99.90;;;;;;5053433;28;21007;-70
2023/11/01 00:09:46;;;;;;;6.30;5.70;;;9.90;99.90;;;;;;5053059;28;20475;-70
2023/11/01 00:12:14;;;;;;;6.50;5.97;;;9.90;99.90;;;;;;5035332;28;20477;-70
2023/11/01 00:14:42;;;;;;;8.13;7.33;;;9.90;99.90;;;;;;5035075;28;20449;-70
2023/11/01 00:17:11;;;;;;;7.93;7.00;;;9.90;99.90;;;;;;5034804;28;20989;-70
2023/11/01 00:19:39;;;;;;;9.57;6.30;;;9.90;99.90;;;;;;5034877;28;20833;-70
2023/11/01 00:22:08;;;;;;;7.10;6.50;;;9.90;99.90;;;;;;5052867;28;20434;-70
2023/11/01 00:24:38;;;;;;;7.27;6.67;;;9.90;99.90;;;;;;5034923;28;21012;-70
2023/11/01 00:27:11;;;;;;;6.97;6.27;;;9.90;99.90;;;;;;5034982;28;20437;-70
2023/11/01 00:29:39;;;;;;;8.37;6.30;;;9.90;99.90;;;;;;5052701;28;20454;-70
2023/11/01 00:32:07;;;;;;;7.47;6.77;;;9.90;99.90;;;;;;5035120;28;20948;-70
2023/11/01 00:34:35;;;;;;;7.83;6.07;;;9.90;99.90;;;;;;5035152;28;20446;-70
2023/11/01 00:37:04;;;;;;;7.50;6.80;;;9.90;99.90;;;;;;5034827;28;20481;-70
2023/11/01 00:39:32;;;;;;;8.00;7.20;;;9.90;99.90;;;;;;5034814;28;20478;-70
2023/11/01 00:42:01;;;;;;;7.23;6.63;;;9.90;99.90;;;;;;5038541;28;20441;-70
2023/11/01 00:44:30;;;;;;;7.83;7.10;;;9.90;99.90;;;;;;5056598;28;20462;-70
2023/11/01 00:46:58;;;;;;;9.20;7.37;;;9.90;99.90;;;;;;5038491;28;20437;-70
2023/11/01 00:49:26;;;;;;;8.30;7.47;;;9.90;99.90;;;;;;5038319;28;20477;-70
2023/11/01 00:51:54;;;;;;;8.40;7.47;;;9.90;99.90;;;;;;5038311;28;20450;-70
2023/11/01 00:54:22;;;;;;;11.37;9.00;;;9.90;99.90;;;;;;5038608;28;20548;-70
2023/11/01 00:56:50;;;;;;;10.90;9.00;;;9.90;99.90;;;;;;5038518;28;20473;-70
2023/11/01 00:59:19;;;;;;;13.10;9.60;;;9.90;99.90;;;;;;5038094;28;20485;-70
2023/11/01 01:01:48;;;;;;;10.13;9.10;;;9.90;99.90;;;;;;5055967;28;20503;-71
2023/11/01 01:04:16;;;;;;;11.43;10.27;;;9.90;99.90;;;;;;5038055;28;20448;-70
2023/11/01 01:06:44;;;;;;;12.70;9.23;;;9.90;99.90;;;;;;5055924;28;20492;-70
2023/11/01 01:09:12;;;;;;;11.57;10.10;;;9.90;99.90;;;;;;5056104;28;20492;-70
2023/11/01 01:11:40;;;;;;;11.30;10.20;;;9.90;99.90;;;;;;5037995;28;20533;-70
2023/11/01 01:14:08;;;;;;;11.63;9.60;;;9.90;99.90;;;;;;5056101;28;20434;-70
2023/11/01 01:16:38;;;;;;;11.30;10.20;;;9.90;99.90;;;;;;5038108;28;20453;-71
2023/11/01 01:19:06;;;;;;;13.63;11.37;;;9.90;99.90;;;;;;5055918;28;20505;-70
2023/11/01 01:21:34;;;;;;;11.93;10.73;;;9.90;99.90;;;;;;5037797;28;20477;-70
2023/11/01 01:24:03;;;;;;;14.10;11.30;;;9.90;99.90;;;;;;5037858;28;20490;-70
2023/11/01 01:26:32;;;;;;;12.00;10.60;;;9.90;99.90;;;;;;5037685;28;20446;-70
2023/11/01 01:29:00;;;;;;;11.40;10.30;;;9.90;99.90;;;;;;5037534;28;20462;-71
2023/11/01 01:31:28;;;;;;;13.33;10.97;;;9.90;99.90;;;;;;5037647;28;20930;-70
2023/11/01 01:33:58;;;;;;;12.97;11.67;;;10.00;99.90;;;;;;5037534;28;20533;-70
2023/11/01 01:36:26;;;;;;;12.00;10.80;;;10.00;99.90;;;;;;5037463;28;20500;-70
2023/11/01 01:38:54;;;;;;;13.47;11.90;;;10.00;99.90;;;;;;5037327;28;20469;-70
2023/11/01 01:41:22;;;;;;;12.33;11.03;;;10.00;99.90;;;;;;5037465;28;20477;-70
2023/11/01 01:43:50;;;;;;;14.33;11.70;;;10.00;99.90;;;;;;5037342;28;20446;-70
2023/11/01 01:46:19;;;;;;;13.37;11.97;;;10.00;99.90;;;;;;5037308;28;20866;-70
2023/11/01 01:48:48;;;;;;;13.90;12.40;;;10.00;99.90;;;;;;5037168;28;20553;-70
2023/11/01 01:51:18;;;;;;;13.73;12.30;;;10.00;99.90;;;;;;5036574;28;20442;-70
2023/11/01 01:53:48;;;;;;;16.10;12.37;;;10.00;99.90;;;;;;5055342;28;20469;-70
2023/11/01 01:56:18;;;;;;;18.37;13.20;;;10.00;99.90;;;;;;5038026;28;20438;-70
2023/11/01 01:58:46;;;;;;;14.20;12.33;;;10.00;99.90;;;;;;5036991;28;20505;-70
2023/11/01 02:01:15;;;;;;;15.30;11.83;;;10.00;99.90;;;;;;5037217;28;20978;-70
2023/11/01 02:03:43;;;;;;;13.23;11.87;;;10.00;99.90;;;;;;5037236;28;20944;-70
2023/11/01 02:06:11;;;;;;;13.30;12.00;;;10.00;99.90;;;;;;5037177;28;20529;-70
2023/11/01 02:08:41;;;;;;;14.70;12.10;;;10.00;99.90;;;;;;5037087;28;20544;-70
2023/11/01 02:11:10;;;;;;;14.67;12.77;;;10.00;99.90;;;;;;5036989;28;20450;-70
2023/11/01 02:13:38;;;;;;;14.70;12.77;;;10.00;99.90;;;;;;5036926;28;20532;-70
2023/11/01 02:16:07;;;;;;;15.90;14.40;;;10.10;99.90;;;;;;5036861;28;20540;-70
2023/11/01 02:18:35;;;;;;;14.60;13.10;;;10.10;99.90;;;;;;5036784;28;20526;-70
2023/11/01 02:21:05;;;;;;;15.23;13.30;;;10.10;99.90;;;;;;5054569;28;20789;-70
2023/11/01 02:23:35;;;;;;;16.03;13.40;;;10.10;99.90;;;;;;5036682;28;20500;-70
2023/11/01 02:26:04;;;;;;;15.83;13.73;;;10.10;99.90;;;;;;5036721;28;20537;-70
2023/11/01 02:28:32;;;;;;;16.00;13.60;;;10.10;99.90;;;;;;5054378;28;20557;-70
2023/11/01 02:31:00;;;;;;;16.77;14.97;;;10.10;99.90;;;;;;5054678;28;20438;-70
2023/11/01 02:33:28;;;;;;;16.60;13.57;;;10.10;99.90;;;;;;5054413;28;20445;-70
2023/11/01 02:35:57;;;;;;;16.70;13.67;;;10.10;99.90;;;;;;5036559;28;20513;-71
2023/11/01 02:38:25;;;;;;;17.10;14.80;;;10.10;99.90;;;;;;5036497;28;20861;-70
2023/11/01 02:40:55;;;;;;;15.70;13.50;;;10.10;99.90;;;;;;5036366;28;20450;-70
2023/11/01 02:43:23;;;;;;;17.20;14.77;;;10.10;99.90;;;;;;5036443;28;20495;-70
2023/11/01 02:45:51;;;;;;;15.53;13.93;;;10.10;99.90;;;;;;5054360;28;20438;-70
2023/11/01 02:48:19;;;;;;;17.10;14.47;;;10.10;99.90;;;;;;5054218;28;20458;-70
2023/11/01 02:50:47;;;;;;;16.70;14.40;;;10.10;99.90;;;;;;5036201;28;20500;-70
2023/11/01 02:53:15;;;;;;;19.20;14.67;;;10.10;99.90;;;;;;5054182;28;20783;-70
2023/11/01 02:55:43;;;;;;;18.40;14.73;;;10.10;99.90;;;;;;5054463;28;20434;-70
2023/11/01 02:58:13;;;;;;;19.17;15.43;;;10.10;99.90;;;;;;5035996;28;20465;-70
2023/11/01 03:00:41;;;;;;;15.63;14.03;;;10.10;99.90;;;;;;5053755;28;20461;-70
2023/11/01 03:03:09;;;;;;;20.77;15.90;;;10.10;99.90;;;;;;5053596;28;20526;-70
2023/11/01 03:05:37;;;;;;;19.53;14.73;;;10.10;99.90;;;;;;5036061;28;20446;-70
2023/11/01 03:08:05;;;;;;;18.37;15.50;;;10.20;99.90;;;;;;5053687;28;20482;-70
2023/11/01 03:10:33;;;;;;;18.13;16.23;;;10.10;99.90;;;;;;5035719;28;20903;-70
2023/11/01 03:13:01;;;;;;;20.40;16.90;;;10.20;99.90;;;;;;5053592;28;20468;-70
2023/11/01 03:15:31;;;;;;;19.67;17.00;;;10.20;99.90;;;;;;5036075;28;20474;-70
2023/11/01 03:17:59;;;;;;;18.10;16.17;;;10.20;99.90;;;;;;5035761;28;21009;-70
2023/11/01 03:20:27;;;;;;;18.20;15.97;;;10.20;99.90;;;;;;5035513;28;20470;-70
2023/11/01 03:22:55;;;;;;;20.90;18.00;;;10.20;99.90;;;;;;5035559;28;20457;-70
2023/11/01 03:25:24;;;;;;;19.07;16.80;;;10.20;99.90;;;;;;5035547;28;20450;-70
2023/11/01 03:27:52;;;;;;;19.80;16.80;;;10.20;99.90;;;;;;5053413;28;20529;-70
2023/11/01 03:30:22;;;;;;;17.57;15.67;;;10.20;99.90;;;;;;5035647;28;20863;-70
2023/11/01 03:32:51;;;;;;;20.53;18.30;;;10.20;99.90;;;;;;5053887;28;20868;-70
2023/11/01 03:35:19;;;;;;;20.63;17.00;;;10.20;99.90;;;;;;5035553;28;20454;-70
2023/11/01 03:37:48;;;;;;;21.33;18.27;;;10.20;99.90;;;;;;5053462;28;20430;-70
2023/11/01 03:40:16;;;;;;;20.90;18.43;;;10.20;99.90;;;;;;5053439;28;20462;-71
2023/11/01 03:42:44;;;;;;;22.57;18.70;;;10.20;99.90;;;;;;5035369;28;20951;-70
2023/11/01 03:45:12;;;;;;;20.93;17.77;;;10.20;99.90;;;;;;5053639;28;20446;-70
2023/11/01 03:47:41;;;;;;;22.17;18.50;;;10.20;99.90;;;;;;5038041;28;20449;-70
2023/11/01 03:50:11;;;;;;;20.53;18.43;;;10.20;99.90;;;;;;5054410;28;20521;-71
2023/11/01 03:52:39;;;;;;;26.00;20.50;;;10.20;99.90;;;;;;5053141;28;20813;-70
2023/11/01 03:55:11;;;;;;;23.53;18.83;;;10.20;99.90;;;;;;5035267;28;20442;-71
2023/11/01 03:57:39;;;;;;;22.80;19.80;;;10.20;99.90;;;;;;5053657;28;20780;-71
2023/11/01 04:00:08;;;;;;;22.30;19.90;;;10.20;99.90;;;;;;5053259;28;20465;-71
2023/11/01 04:02:37;;;;;;;33.27;20.77;;;10.20;99.90;;;;;;5053053;28;20462;-71
2023/11/01 04:05:06;;;;;;;23.70;20.30;;;10.20;99.90;;;;;;5035140;28;20541;-71
2023/11/01 04:07:36;;;;;;;24.50;21.77;;;10.20;99.90;;;;;;5053079;28;20808;-71
2023/11/01 04:10:05;;;;;;;29.07;25.43;;;10.20;99.90;;;;;;5053119;28;20508;-70
2023/11/01 04:12:33;;;;;;;32.03;27.50;;;10.20;99.90;;;;;;5035149;28;20447;-70
2023/11/01 04:15:01;;;;;;;33.70;28.43;;;10.20;99.90;;;;;;5054139;28;20448;-71
2023/11/01 04:17:29;;;;;;;30.67;25.53;;;10.30;99.90;;;;;;5056915;28;20969;-71
2023/11/01 04:19:58;;;;;;;27.60;24.07;;;10.30;99.90;;;;;;5056710;28;20470;-71
2023/11/01 04:22:28;;;;;;;29.03;25.00;;;10.30;99.90;;;;;;5056857;28;20438;-71
2023/11/01 04:24:57;;;;;;;33.57;28.30;;;10.30;99.90;;;;;;5056894;28;21042;-70
2023/11/01 04:27:25;;;;;;;36.73;28.20;;;10.30;99.90;;;;;;5056699;28;20440;-70
2023/11/01 04:29:54;;;;;;;35.27;27.80;;;10.30;99.90;;;;;;5056595;28;20944;-71
2023/11/01 04:32:22;;;;;;;31.00;25.50;;;10.30;99.90;;;;;;5057153;28;20437;-71
2023/11/01 04:34:50;;;;;;;36.40;26.07;;;10.40;99.90;;;;;;5056848;28;20970;-71
2023/11/01 04:37:18;;;;;;;31.60;25.50;;;10.40;99.90;;;;;;5056521;28;20426;-71
2023/11/01 04:39:46;;;;;;;30.37;25.70;;;10.40;99.90;;;;;;5056865;28;20465;-71
2023/11/01 04:42:17;;;;;;;29.40;24.20;;;10.40;99.90;;;;;;5056792;28;20461;-70
2023/11/01 04:44:45;;;;;;;36.50;27.50;;;10.40;99.90;;;;;;5056958;28;20427;-71
2023/11/01 04:47:14;;;;;;;29.40;25.40;;;10.40;99.90;;;;;;5056780;28;20434;-71
2023/11/01 04:49:42;;;;;;;32.63;27.07;;;10.40;99.90;;;;;;5056340;28;20465;-71
2023/11/01 04:52:11;;;;;;;30.87;26.17;;;10.40;99.90;;;;;;5056170;28;20957;-71
2023/11/01 04:54:39;;;;;;;32.97;25.97;;;10.40;99.90;;;;;;5056222;28;20433;-71
2023/11/01 04:57:07;;;;;;;32.60;26.70;;;10.40;99.90;;;;;;5038264;28;20529;-71
2023/11/01 04:59:36;;;;;;;31.97;26.77;;;10.40;99.90;;;;;;5056340;28;20454;-71
2023/11/01 05:02:04;;;;;;;31.80;26.50;;;10.40;99.90;;;;;;5056345;28;20772;-71
2023/11/01 05:04:33;;;;;;;37.23;27.97;;;10.40;99.90;;;;;;5056107;28;20446;-71
2023/11/01 05:07:01;;;;;;;38.20;30.27;;;10.40;99.90;;;;;;5038120;28;20533;-71
2023/11/01 05:09:29;;;;;;;33.60;27.97;;;10.40;99.90;;;;;;5055854;28;20587;-71
2023/11/01 05:11:58;;;;;;;36.00;28.53;;;10.40;99.90;;;;;;5038071;28;20939;-70
2023/11/01 05:14:26;;;;;;;38.43;30.23;;;10.50;99.90;;;;;;5056321;28;20931;-71
2023/11/01 05:16:56;;;;;;;36.67;27.57;;;10.50;99.90;;;;;;5037944;28;20496;-71
2023/11/01 05:19:24;;;;;;;36.00;29.00;;;10.50;99.90;;;;;;5056020;28;20488;-71
2023/11/01 05:21:52;;;;;;;30.97;27.50;;;10.50;99.90;;;;;;5037766;28;20478;-70
2023/11/01 05:24:20;;;;;;;36.80;30.73;;;10.50;99.90;;;;;;5055893;28;20530;-70
2023/11/01 05:26:48;;;;;;;43.47;33.23;;;10.50;99.90;;;;;;5054205;28;20441;-71
2023/11/01 05:29:16;;;;;;;42.90;35.00;;;10.50;99.90;;;;;;5037736;28;20461;-70
2023/11/01 05:31:44;;;;;;;38.93;31.17;;;10.50;99.90;;;;;;5037629;28;20533;-71
2023/11/01 05:34:14;;;;;;;37.30;32.47;;;10.50;99.90;;;;;;5055451;28;20462;-71
2023/11/01 05:36:42;;;;;;;47.10;35.50;;;10.50;99.90;;;;;;5055363;28;20920;-70
2023/11/01 05:39:10;;;;;;;42.30;32.47;;;10.50;99.90;;;;;;5055307;28;20454;-70
2023/11/01 05:41:38;;;;;;;39.00;32.80;;;10.50;99.90;;;;;;5055196;28;20472;-70
2023/11/01 05:44:06;;;;;;;43.43;32.57;;;10.50;99.90;;;;;;5037350;28;20496;-71
2023/11/01 05:46:34;;;;;;;41.30;33.07;;;10.50;99.90;;;;;;5055545;28;20449;-70
2023/11/01 05:49:04;;;;;;;40.43;32.90;;;10.60;99.90;;;;;;5055680;28;20488;-71
2023/11/01 05:51:33;;;;;;;28.67;22.97;;;10.60;99.90;;;;;;5037513;28;20474;-71
2023/11/01 05:54:01;;;;;;;37.77;30.83;;;10.60;99.90;;;;;;5055083;28;20438;-71
2023/11/01 05:56:29;;;;;;;35.13;29.47;;;10.60;99.90;;;;;;5037274;28;20868;-71
2023/11/01 05:58:58;;;;;;;40.30;31.33;;;10.60;99.90;;;;;;5055635;28;20646;-71
2023/11/01 06:01:26;;;;;;;38.90;31.47;;;10.60;99.90;;;;;;5055461;28;20470;-71
2023/11/01 06:03:56;;;;;;;44.40;30.20;;;10.60;99.90;;;;;;5055168;28;20527;-71
2023/11/01 06:06:25;;;;;;;37.00;29.87;;;10.60;99.90;;;;;;5055212;28;20493;-71
2023/11/01 06:08:55;;;;;;;36.70;30.57;;;10.60;99.90;;;;;;5054779;28;20881;-71
2023/11/01 06:11:24;;;;;;;44.30;34.10;;;10.60;99.90;;;;;;5055085;28;20446;-71
2023/11/01 06:13:52;;;;;;;40.30;32.00;;;10.60;99.90;;;;;;5036831;28;20446;-71
2023/11/01 06:16:20;;;;;;;35.97;29.47;;;10.60;99.90;;;;;;5054575;28;20437;-71
2023/11/01 06:18:49;;;;;;;38.17;31.30;;;10.60;99.90;;;;;;5055160;28;20450;-71
2023/11/01 06:21:17;;;;;;;39.30;33.17;;;10.60;99.90;;;;;;5054793;28;20473;-71
2023/11/01 06:23:45;;;;;;;35.60;30.40;;;10.60;99.90;;;;;;5054524;28;20434;-71
2023/11/01 06:26:16;;;;;;;33.80;28.87;;;10.60;99.90;;;;;;5054761;28;20444;-71
2023/11/01 06:28:45;;;;;;;35.07;28.60;;;10.70;99.90;;;;;;5054663;28;20464;-71
2023/11/01 06:31:14;;;;;;;34.50;29.30;;;10.70;99.90;;;;;;5054648;28;20435;-70
2023/11/01 06:33:42;;;;;;;35.20;29.10;;;10.70;99.90;;;;;;5054310;28;20443;-71
2023/11/01 06:36:11;;;;;;;34.47;28.37;;;10.70;99.90;;;;;;5054313;28;20532;-70
2023/11/01 06:38:39;;;;;;;35.30;29.97;;;10.70;99.90;;;;;;5053867;28;20545;-71
2023/11/01 06:41:08;;;;;;;35.37;29.27;;;10.70;99.90;;;;;;5054144;28;20565;-71
2023/11/01 06:43:37;;;;;;;35.83;28.97;;;10.70;99.90;;;;;;5054532;28;20456;-71
2023/11/01 06:46:05;;;;;;;31.33;27.80;;;10.80;99.90;;;;;;5037328;28;20540;-71
2023/11/01 06:48:33;;;;;;;33.27;28.30;;;10.80;99.90;;;;;;5053957;28;20450;-71
2023/11/01 06:51:02;;;;;;;34.13;29.80;;;10.80;99.90;;;;;;5053977;28;20442;-71
2023/11/01 06:53:30;;;;;;;31.70;28.30;;;10.80;99.90;;;;;;5036078;28;20450;-71
2023/11/01 06:55:58;;;;;;;38.90;29.70;;;10.80;99.90;;;;;;5036074;28;20625;-71
2023/11/01 06:58:26;;;;;;;38.97;30.20;;;10.80;99.90;;;;;;5035946;28;20903;-71
2023/11/01 07:00:56;;;;;;;35.80;27.67;;;10.90;99.90;;;;;;5054016;28;20440;-71
2023/11/01 07:03:24;;;;;;;35.40;29.87;;;10.90;99.90;;;;;;5054073;28;20832;-71
2023/11/01 07:05:52;;;;;;;37.43;28.63;;;10.90;99.90;;;;;;5054277;28;20438;-71
2023/11/01 07:08:21;;;;;;;35.70;28.53;;;10.90;99.90;;;;;;5053592;28;20548;-70
2023/11/01 07:10:49;;;;;;;35.77;29.17;;;10.90;99.90;;;;;;5053920;28;20443;-71
2023/11/01 07:13:17;;;;;;;34.67;29.20;;;10.90;99.90;;;;;;5053921;28;20862;-71
2023/11/01 07:15:46;;;;;;;31.00;27.00;;;11.00;99.90;;;;;;5035836;28;20462;-71
2023/11/01 07:18:15;;;;;;;35.27;27.80;;;11.00;99.90;;;;;;5053479;28;20493;-71
2023/11/01 07:20:44;;;;;;;35.60;27.70;;;11.00;99.90;;;;;;5053539;28;20452;-71
2023/11/01 07:23:12;;;;;;;35.80;29.00;;;11.00;99.90;;;;;;5053373;28;20470;-71
2023/11/01 07:25:40;;;;;;;35.63;28.93;;;11.00;99.90;;;;;;5053344;28;20845;-71
2023/11/01 07:28:08;;;;;;;34.70;29.27;;;11.10;99.90;;;;;;5053678;28;20564;-71
2023/11/01 07:30:36;;;;;;;26.20;23.50;;;11.00;99.90;;;;;;5053389;28;20442;-71
2023/11/01 07:33:04;;;;;;;33.73;27.60;;;11.10;99.90;;;;;;5053421;28;20449;-71
2023/11/01 07:35:34;;;;;;;30.10;25.57;;;11.10;99.90;;;;;;5053475;28;20792;-71
2023/11/01 07:38:02;;;;;;;28.80;25.67;;;11.10;99.90;;;;;;5035349;28;20498;-71
2023/11/01 07:40:30;;;;;;;31.73;25.70;;;11.10;99.90;;;;;;5053324;28;20951;-71
2023/11/01 07:42:58;;;;;;;28.77;25.40;;;11.10;99.90;;;;;;5053501;28;20472;-71
2023/11/01 07:45:26;;;;;;;30.73;25.70;;;11.10;99.90;;;;;;5053343;28;20487;-71
2023/11/01 07:47:54;;;;;;;25.87;23.17;;;11.10;99.90;;;;;;5053192;28;20434;-71
2023/11/01 07:50:22;;;;;;;31.27;25.17;;;11.20;99.90;;;;;;5052307;28;20426;-71
2023/11/01 07:52:52;;;;;;;26.73;23.30;;;11.20;99.90;;;;;;5053651;28;20445;-71
2023/11/01 07:55:20;;;;;;;26.40;23.50;;;11.20;99.90;;;;;;5053717;28;20472;-71
2023/11/01 07:57:48;;;;;;;23.90;21.30;;;11.20;99.90;;;;;;5053065;28;20486;-71
2023/11/01 08:00:17;;;;;;;24.17;21.67;;;11.30;99.90;;;;;;5053705;28;20544;-71
2023/11/01 08:02:45;;;;;;;27.63;22.03;;;11.30;99.90;;;;;;5053069;28;20559;-71
2023/11/01 08:05:14;;;;;;;25.90;21.60;;;11.30;99.90;;;;;;5053046;28;20434;-71
2023/11/01 08:07:42;;;;;;;22.53;20.13;;;11.30;99.90;;;;;;5053507;28;20440;-71
2023/11/01 08:10:11;;;;;;;22.90;20.50;;;11.40;99.90;;;;;;5053139;28;20434;-70
2023/11/01 08:12:40;;;;;;;20.13;18.03;;;11.40;99.90;;;;;;5053326;28;20442;-71
2023/11/01 08:15:09;;;;;;;20.53;18.37;;;11.40;99.90;;;;;;5053237;28;20488;-70
2023/11/01 08:17:37;;;;;;;19.43;17.33;;;11.40;99.90;;;;;;5052922;28;20492;-71
2023/11/01 08:20:06;;;;;;;19.50;17.47;;;11.50;99.90;;;;;;5052979;28;20438;-71
2023/11/01 08:22:35;;;;;;;19.47;16.87;;;11.50;99.90;;;;;;5053120;28;20508;-71
2023/11/01 08:25:04;;;;;;;17.83;16.03;;;11.50;99.90;;;;;;5052893;28;20783;-71
2023/11/01 08:27:34;;;;;;;17.93;16.20;;;11.60;99.90;;;;;;5053099;28;20488;-71
2023/11/01 08:30:02;;;;;;;17.03;14.80;;;11.60;99.90;;;;;;5034948;28;20560;-71
2023/11/01 08:32:30;;;;;;;16.83;15.03;;;11.60;99.90;;;;;;5053042;28;20910;-71
2023/11/01 08:34:58;;;;;;;18.57;14.80;;;11.70;99.90;;;;;;5053118;28;20441;-71
2023/11/01 08:37:26;;;;;;;15.87;14.23;;;11.70;99.90;;;;;;5052762;28;20438;-71
2023/11/01 08:39:54;;;;;;;15.97;13.53;;;11.70;99.90;;;;;;5052681;28;20816;-71
2023/11/01 08:42:22;;;;;;;15.57;13.30;;;11.70;99.90;;;;;;5052764;28;20544;-71
2023/11/01 08:44:52;;;;;;;13.40;12.07;;;11.80;99.90;;;;;;5052740;28;20461;-71
2023/11/01 08:47:42;;;;;;;16.00;11.40;;;11.80;99.90;;;;;;5053534;28;20434;-71
2023/11/01 08:50:12;;;;;;;11.40;9.87;;;11.80;99.90;;;;;;5049440;28;20450;-71
2023/11/01 08:52:42;;;;;;;10.23;8.80;;;11.80;99.90;;;;;;5053271;28;20410;-71
2023/11/01 08:55:12;;;;;;;9.67;8.77;;;11.80;99.90;;;;;;5052885;28;20487;-71
2023/11/01 08:57:41;;;;;;;9.60;8.63;;;11.90;99.90;;;;;;5052430;28;20434;-71
2023/11/01 09:00:13;;;;;;;8.73;7.50;;;11.90;99.90;;;;;;5052789;28;20448;-71
2023/11/01 09:02:41;;;;;;;8.10;7.40;;;11.90;99.90;;;;;;5055911;28;20462;-70
2023/11/01 09:05:10;;;;;;;8.13;7.30;;;11.90;99.90;;;;;;5056109;28;20499;-71
2023/11/01 09:07:38;;;;;;;9.40;7.40;;;11.90;99.90;;;;;;5056283;28;20789;-70
2023/11/01 09:10:08;;;;;;;7.27;6.53;;;11.90;99.90;;;;;;5038138;28;20533;-70
2023/11/01 09:12:37;;;;;;;7.60;6.80;;;11.90;99.90;;;;;;5056245;28;20816;-71
2023/11/01 09:15:07;;;;;;;8.00;5.77;;;11.90;99.90;;;;;;5056188;28;21014;-70
2023/11/01 09:17:36;;;;;;;5.83;4.17;;;12.00;99.90;;;;;;5037989;28;21054;-71
2023/11/01 09:20:06;;;;;;;6.10;5.60;;;11.90;99.90;;;;;;5056391;28;20445;-70
2023/11/01 09:22:34;;;;;;;7.97;5.33;;;12.00;99.90;;;;;;5055892;28;20474;-71
2023/11/01 09:25:03;;;;;;;6.27;5.47;;;12.00;99.90;;;;;;5055730;28;20442;-71
2023/11/01 09:27:31;;;;;;;5.40;4.40;;;12.00;99.90;;;;;;5055811;28;20446;-70
2023/11/01 09:29:59;;;;;;;6.00;4.67;;;12.00;99.90;;;;;;5055804;28;20511;-70
2023/11/01 09:32:27;;;;;;;10.10;8.00;;;12.00;99.90;;;;;;5055687;28;20449;-70
2023/11/01 09:34:56;;;;;;;4.50;4.10;;;12.00;99.90;;;;;;5055525;28;20456;-70
2023/11/01 09:37:25;;;;;;;4.50;3.83;;;12.00;99.90;;;;;;5055651;28;20521;-70
2023/11/01 09:39:53;;;;;;;5.00;4.60;;;12.10;99.90;;;;;;5055399;28;20512;-70
2023/11/01 09:42:23;;;;;;;4.80;4.20;;;12.10;99.90;;;;;;5055632;28;20456;-70
2023/11/01 09:44:57;;;;;;;3.50;3.20;;;12.10;99.90;;;;;;5055622;28;20620;-70
2023/11/01 09:47:26;;;;;;;3.93;3.63;;;12.10;99.90;;;;;;5037833;28;20446;-70
2023/11/01 09:49:57;;;;;;;6.80;6.10;;;12.10;99.90;;;;;;5055700;28;20465;-70
2023/11/01 09:52:26;;;;;;;4.60;4.17;;;12.10;99.90;;;;;;5055792;28;20471;-71
2023/11/01 09:54:54;;;;;;;3.20;2.90;;;12.10;99.90;;;;;;5055812;28;20437;-69
2023/11/01 09:57:24;;;;;;;2.93;2.73;;;12.10;99.90;;;;;;5055491;28;20437;-70
2023/11/01 09:59:53;;;;;;;5.63;3.87;;;12.10;99.90;;;;;;5055050;28;20477;-71
2023/11/01 10:02:22;;;;;;;4.20;3.23;;;12.20;99.90;;;;;;5054966;28;20433;-70
2023/11/01 10:04:51;;;;;;;4.77;3.50;;;12.10;99.90;;;;;;5055297;28;20438;-70
2023/11/01 10:07:20;;;;;;;5.03;3.63;;;12.10;99.90;;;;;;5054889;28;20445;-70
2023/11/01 10:09:49;;;;;;;3.23;2.83;;;12.20;99.90;;;;;;5054855;28;20454;-70
2023/11/01 10:12:19;;;;;;;3.07;2.77;;;12.20;99.90;;;;;;5054716;28;20445;-70
2023/11/01 10:14:47;;;;;;;3.20;2.97;;;12.20;99.90;;;;;;5054722;28;20438;-70
2023/11/01 10:17:16;;;;;;;3.30;3.00;;;12.20;99.90;;;;;;5054832;28;20458;-70
2023/11/01 10:19:44;;;;;;;2.90;2.70;;;12.20;99.90;;;;;;5054803;28;20983;-69
2023/11/01 10:22:12;;;;;;;3.03;2.47;;;12.20;99.90;;;;;;5054858;28;20530;-69
2023/11/01 10:24:43;;;;;;;3.80;2.47;;;12.20;99.90;;;;;;5055104;28;21055;-70
2023/11/01 10:27:11;;;;;;;3.10;2.87;;;12.30;99.90;;;;;;5055339;28;20449;-70
2023/11/01 10:29:44;;;;;;;3.10;2.80;;;12.30;99.90;;;;;;5054719;28;21064;-70
2023/11/01 10:32:14;;;;;;;3.10;2.57;;;12.30;99.90;;;;;;5036591;28;20622;-70
2023/11/01 10:34:42;;;;;;;3.00;2.60;;;12.30;99.90;;;;;;5054976;28;20434;-70
2023/11/01 10:37:10;;;;;;;3.10;2.80;;;12.30;99.90;;;;;;5054407;28;20438;-70
2023/11/01 10:39:39;;;;;;;3.17;2.87;;;12.30;99.90;;;;;;5054502;28;20568;-70
2023/11/01 10:42:10;;;;;;;2.60;2.40;;;12.30;99.90;;;;;;5054643;28;20442;-70
2023/11/01 10:44:39;;;;;;;3.30;3.00;;;12.40;99.90;;;;;;5036291;28;20493;-70
2023/11/01 10:47:08;;;;;;;3.30;3.00;;;12.40;99.90;;;;;;5055273;28;20442;-70
2023/11/01 10:49:38;;;;;;;3.00;2.80;;;12.40;99.90;;;;;;5055538;28;20828;-70
2023/11/01 10:52:08;;;;;;;3.10;2.80;;;12.40;99.90;;;;;;5055671;28;20529;-71
2023/11/01 10:54:37;;;;;;;3.67;3.27;;;12.40;99.90;;;;;;5055559;28;20415;-71
2023/11/01 10:57:06;;;;;;;4.20;3.80;;;12.40;99.90;;;;;;5055294;28;20927;-70
2023/11/01 10:59:54;;;;;;;4.60;3.70;;;12.40;99.90;;;;;;5055179;28;20466;-70
2023/11/01 11:02:25;;;;;;;4.53;4.13;;;12.50;99.90;;;;;;5055586;28;20441;-70
2023/11/01 11:05:04;;;;;;;5.47;4.77;;;12.50;99.90;;;;;;5055208;28;20458;-71
2023/11/01 11:07:48;;;;;;;5.63;5.10;;;12.50;99.90;;;;;;5055016;28;20422;-70
2023/11/01 11:10:24;;;;;;;6.80;5.10;;;12.50;99.90;;;;;;5054672;28;20509;-71
2023/11/01 11:13:26;;;;;;;7.40;6.27;;;12.50;99.90;;;;;;5055752;28;20773;-71
2023/11/01 11:16:02;;;;;;;8.30;7.50;;;12.50;99.90;;;;;;5054711;28;20560;-70
2023/11/01 11:19:03;;;;;;;9.67;7.50;;;12.60;99.90;;;;;;5054997;28;20465;-70
2023/11/01 11:22:01;;;;;;;9.47;8.57;;;12.60;99.90;;;;;;5055132;28;21002;-70
2023/11/01 11:24:47;;;;;;;8.90;8.00;;;12.60;99.90;;;;;;5054991;28;20466;-70
2023/11/01 11:27:50;;;;;;;12.33;10.87;;;12.60;99.90;;;;;;5055912;28;20429;-70
2023/11/01 11:30:57;;;;;;;11.87;10.70;;;12.70;99.90;;;;;;5054685;28;20487;-70
2023/11/01 11:33:26;;;;;;;12.93;11.70;;;12.70;99.90;;;;;;5035047;28;20851;-70
2023/11/01 11:36:14;;;;;;;13.23;11.83;;;12.70;99.90;;;;;;5054699;28;20434;-70
2023/11/01 11:38:50;;;;;;;13.50;12.10;;;12.70;99.90;;;;;;5054159;28;20466;-71
2023/11/01 11:41:20;;;;;;;16.00;13.20;;;12.80;99.90;;;;;;5054474;28;20508;-71
2023/11/01 11:44:08;;;;;;;17.10;13.73;;;12.80;99.90;;;;;;5054045;28;20462;-71
2023/11/01 11:46:40;;;;;;;13.13;11.93;;;12.80;99.90;;;;;;5054105;28;20445;-71
2023/11/01 11:49:21;;;;;;;15.67;14.10;;;12.80;99.90;;;;;;5054169;28;20541;-71
2023/11/01 11:51:52;;;;;;;15.83;14.23;;;12.90;99.90;;;;;;5036436;28;20426;-71
2023/11/01 11:54:21;;;;;;;18.43;14.57;;;12.90;99.90;;;;;;5054047;28;20492;-71
2023/11/01 11:56:52;;;;;;;18.10;14.97;;;12.90;99.90;;;;;;5053952;28;20433;-71
2023/11/01 11:59:23;;;;;;;16.57;14.87;;;12.90;99.90;;;;;;5054350;28;20464;-70
2023/11/01 12:01:54;;;;;;;19.03;14.20;;;13.00;99.90;;;;;;5054826;28;20421;-71
2023/11/01 12:04:28;;;;;;;16.47;14.87;;;13.00;99.90;;;;;;5054310;28;21025;-70
2023/11/01 12:06:57;;;;;;;15.50;14.00;;;13.00;99.90;;;;;;5054354;28;20759;-70
2023/11/01 12:09:25;;;;;;;15.93;14.13;;;13.10;99.90;;;;;;5053532;28;21045;-70
2023/11/01 12:11:55;;;;;;;17.43;15.83;;;13.10;99.90;;;;;;5036206;28;20947;-70
2023/11/01 12:14:24;;;;;;;16.00;14.20;;;13.10;99.90;;;;;;5036539;28;20446;-70
2023/11/01 12:16:53;;;;;;;18.20;14.97;;;13.10;99.90;;;;;;5035936;28;20545;-70
2023/11/01 12:19:24;;;;;;;16.03;12.77;;;13.20;99.90;;;;;;5053818;28;20465;-71
2023/11/01 12:21:54;;;;;;;15.00;13.00;;;13.20;99.90;;;;;;5054077;28;20827;-71
2023/11/01 12:24:25;;;;;;;16.13;12.67;;;13.20;99.90;;;;;;5053811;28;20461;-71
2023/11/01 12:26:57;;;;;;;19.67;14.00;;;13.30;99.90;;;;;;5054146;28;20429;-70
2023/11/01 12:29:31;;;;;;;17.10;13.67;;;13.30;99.90;;;;;;5053526;28;20469;-71
2023/11/01 12:32:01;;;;;;;13.70;12.30;;;13.40;99.90;;;;;;5036042;28;20440;-71
2023/11/01 12:34:31;;;;;;;17.83;12.70;;;13.50;99.90;;;;;;5054525;28;20434;-71
2023/11/01 12:37:00;;;;;;;18.57;11.43;;;13.50;99.90;;;;;;5038679;28;20460;-71
2023/11/01 12:39:29;;;;;;;13.37;11.80;;;13.50;99.90;;;;;;5057979;28;20498;-70
2023/11/01 12:41:57;;;;;;;13.10;10.80;;;13.60;99.90;;;;;;5057950;28;20437;-70
2023/11/01 12:44:25;;;;;;;12.30;10.60;;;13.60;99.90;;;;;;5040121;28;21033;-71
2023/11/01 12:46:57;;;;;;;10.47;9.47;;;13.60;99.90;;;;;;5057755;28;20538;-70